Time,TemperatureF,DewpointF,PressureIn,WindDirection,WindDirectionDegrees,WindSpeedMPH,WindSpeedGustMPH,Humidity,HourlyPrecipIn,Conditions,Clouds,dailyrainin,SoftwareType,DateUTC
2013-10-01 00:01:00,47.9,47.0,29.97,North,349,0.0,0.0,96,0.00,,,0.00,weatherlink.com 1.10,2013-10-01 04:01:00,
2013-10-01 00:16:00,47.9,47.0,29.97,North,349,0.0,0.0,97,0.00,,,0.00,weatherlink.com 1.10,2013-10-01 04:16:00,
2013-10-01 00:31:00,47.0,46.0,29.97,North,349,0.0,0.0,96,0.00,,,0.00,weatherlink.com 1.10,2013-10-01 04:31:00,
2013-10-01 00:46:00,47.2,46.0,29.98,North,349,0.0,0.0,97,0.00,,,0.00,weatherlink.com 1.10,2013-10-01 04:46:00,
2013-10-01 01:01:00,46.9,46.0,29.98,North,349,0.0,0.0,97,0.00,,,0.00,weatherlink.com 1.10,2013-10-01 05:01:00,
2013-10-01 01:16:00,46.4,46.0,29.98,North,349,0.0,0.0,97,0.00,,,0.00,weatherlink.com 1.10,2013-10-01 05:16:00,
2013-10-01 01:31:00,46.2,45.0,29.98,North,349,0.0,0.0,97,0.00,,,0.00,weatherlink.com 1.10,2013-10-01 05:31:00,
2013-10-01 01:46:00,45.8,45.0,29.98,North,349,0.0,0.0,97,0.00,,,0.00,weatherlink.com 1.10,2013-10-01 05:46:00,
2013-10-01 02:01:00,45.7,45.0,29.97,North,349,0.0,0.0,97,0.00,,,0.00,weatherlink.com 1.10,2013-10-01 06:01:00,
2013-10-01 02:16:00,45.3,45.0,29.97,North,349,0.0,0.0,97,0.00,,,0.00,weatherlink.com 1.10,2013-10-01 06:16:00,
2013-10-01 02:31:00,45.1,44.0,29.96,North,349,0.0,0.0,97,0.00,,,0.00,weatherlink.com 1.10,2013-10-01 06:31:00,
2013-10-01 02:46:00,45.1,44.0,29.96,North,349,0.0,0.0,97,0.00,,,0.00,weatherlink.com 1.10,2013-10-01 06:46:00,
2013-10-01 03:02:00,45.0,44.0,29.96,North,349,0.0,0.0,97,0.00,,,0.00,weatherlink.com 1.10,2013-10-01 07:02:00,
2013-10-01 03:17:00,44.4,44.0,29.96,North,349,0.0,0.0,97,0.00,,,0.00,weatherlink.com 1.10,2013-10-01 07:17:00,
2013-10-01 03:32:00,44.5,44.0,29.96,North,349,0.0,0.0,97,0.00,,,0.00,weatherlink.com 1.10,2013-10-01 07:32:00,
2013-10-01 03:47:00,44.3,44.0,29.96,North,349,0.0,0.0,97,0.00,,,0.00,weatherlink.com 1.10,2013-10-01 07:47:00,
2013-10-01 04:02:00,44.0,43.0,29.96,North,349,0.0,0.0,97,0.00,,,0.00,weatherlink.com 1.10,2013-10-01 08:02:00,
2013-10-01 04:17:00,43.9,43.0,29.97,North,349,0.0,0.0,98,0.00,,,0.00,weatherlink.com 1.10,2013-10-01 08:17:00,
2013-10-01 04:32:00,43.9,43.0,29.97,North,349,0.0,0.0,98,0.00,,,0.00,weatherlink.com 1.10,2013-10-01 08:32:00,
2013-10-01 04:47:00,43.8,43.0,29.97,North,349,0.0,0.0,98,0.00,,,0.00,weatherlink.com 1.10,2013-10-01 08:47:00,
2013-10-01 05:02:00,43.1,43.0,29.98,North,349,0.0,0.0,98,0.00,,,0.00,weatherlink.com 1.10,2013-10-01 09:02:00,
2013-10-01 05:17:00,43.5,43.0,29.97,North,349,0.0,0.0,98,0.00,,,0.00,weatherlink.com 1.10,2013-10-01 09:17:00,
2013-10-01 05:32:00,43.5,43.0,29.98,North,349,0.0,0.0,98,0.00,,,0.00,weatherlink.com 1.10,2013-10-01 09:32:00,
2013-10-01 05:47:00,43.1,42.0,29.98,North,357,0.0,0.0,97,0.00,,,0.00,weatherlink.com 1.10,2013-10-01 09:47:00,
2013-10-01 06:02:00,43.2,43.0,29.98,North,357,0.0,0.0,98,0.00,,,0.00,weatherlink.com 1.10,2013-10-01 10:02:00,
2013-10-01 06:17:00,43.2,43.0,29.99,North,357,0.0,0.0,98,0.00,,,0.00,weatherlink.com 1.10,2013-10-01 10:17:00,
2013-10-01 06:32:00,43.8,43.0,29.99,North,357,0.0,0.0,98,0.00,,,0.00,weatherlink.com 1.10,2013-10-01 10:32:00,
2013-10-01 06:47:00,43.9,43.0,29.99,North,357,0.0,0.0,98,0.00,,,0.00,weatherlink.com 1.10,2013-10-01 10:47:00,
2013-10-01 07:02:00,44.7,44.0,30.00,North,357,0.0,0.0,98,0.00,,,0.00,weatherlink.com 1.10,2013-10-01 11:02:00,
2013-10-01 07:17:00,45.4,45.0,30.00,East,96,0.0,1.0,98,0.00,,,0.00,weatherlink.com 1.10,2013-10-01 11:17:00,
2013-10-01 07:32:00,46.0,46.0,30.00,East,96,0.0,0.0,98,0.00,,,0.00,weatherlink.com 1.10,2013-10-01 11:32:00,
2013-10-01 07:47:00,46.6,46.0,30.00,East,96,0.0,0.0,98,0.00,,,0.00,weatherlink.com 1.10,2013-10-01 11:47:00,
2013-10-01 08:02:00,47.9,47.0,30.00,East,101,0.0,0.0,98,0.00,,,0.00,weatherlink.com 1.10,2013-10-01 12:02:00,
2013-10-01 08:17:00,48.5,48.0,30.00,North,359,0.0,1.0,98,0.00,,,0.00,weatherlink.com 1.10,2013-10-01 12:17:00,
2013-10-01 08:32:00,51.3,51.0,30.00,North,359,0.0,1.0,99,0.00,,,0.00,weatherlink.com 1.10,2013-10-01 12:32:00,
2013-10-01 08:47:00,53.6,53.0,30.00,SE,131,1.0,1.0,98,0.00,,,0.00,weatherlink.com 1.10,2013-10-01 12:47:00,
2013-10-01 09:02:00,54.6,53.0,30.00,East,84,2.0,4.0,93,0.00,,,0.00,weatherlink.com 1.10,2013-10-01 13:02:00,
2013-10-01 09:17:00,56.0,53.0,30.00,ESE,119,3.0,3.0,90,0.00,,,0.00,weatherlink.com 1.10,2013-10-01 13:17:00,
2013-10-01 09:32:00,56.3,53.0,29.99,SSE,150,2.0,3.0,89,0.00,,,0.00,weatherlink.com 1.10,2013-10-01 13:32:00,
2013-10-01 09:47:00,57.3,54.0,29.99,SE,134,1.0,4.0,87,0.00,,,0.00,weatherlink.com 1.10,2013-10-01 13:47:00,
2013-10-01 10:02:00,57.5,53.0,29.99,SE,134,5.0,5.0,86,0.00,,,0.00,weatherlink.com 1.10,2013-10-01 14:02:00,
2013-10-01 10:47:00,60.7,55.0,29.97,SSE,158,3.0,7.0,80,0.00,,,0.00,weatherlink.com 1.10,2013-10-01 14:47:00,
2013-10-01 11:03:00,61.8,55.0,29.96,South,179,2.0,7.0,78,0.00,,,0.00,weatherlink.com 1.10,2013-10-01 15:03:00,
2013-10-01 11:18:00,63.2,55.0,29.96,SSE,154,4.0,6.0,75,0.00,,,0.00,weatherlink.com 1.10,2013-10-01 15:18:00,
2013-10-01 11:33:00,64.4,56.0,29.96,ESE,122,2.0,6.0,73,0.00,,,0.00,weatherlink.com 1.10,2013-10-01 15:33:00,
2013-10-01 11:48:00,65.5,55.0,29.95,SSE,162,4.0,6.0,70,0.00,,,0.00,weatherlink.com 1.10,2013-10-01 15:48:00,
2013-10-01 12:03:00,66.5,56.0,29.95,ENE,74,5.0,8.0,68,0.00,,,0.00,weatherlink.com 1.10,2013-10-01 16:03:00,
2013-10-01 12:18:00,67.6,57.0,29.94,SE,145,2.0,7.0,68,0.00,,,0.00,weatherlink.com 1.10,2013-10-01 16:18:00,
2013-10-01 12:33:00,68.4,55.0,29.93,SSE,150,3.0,7.0,63,0.00,,,0.00,weatherlink.com 1.10,2013-10-01 16:33:00,
2013-10-01 12:48:00,70.0,56.0,29.93,ESE,110,3.0,6.0,61,0.00,,,0.00,weatherlink.com 1.10,2013-10-01 16:48:00,
2013-10-01 13:03:00,70.8,56.0,29.92,SE,131,5.0,5.0,59,0.00,,,0.00,weatherlink.com 1.10,2013-10-01 17:03:00,
2013-10-01 13:18:00,71.5,56.0,29.91,SSE,159,4.0,6.0,59,0.00,,,0.00,weatherlink.com 1.10,2013-10-01 17:18:00,
2013-10-01 13:33:00,72.5,57.0,29.90,South,183,3.0,8.0,59,0.00,,,0.00,weatherlink.com 1.10,2013-10-01 17:33:00,
2013-10-01 13:48:00,72.9,56.0,29.89,SE,134,3.0,8.0,56,0.00,,,0.00,weatherlink.com 1.10,2013-10-01 17:48:00,
2013-10-01 14:03:00,73.5,56.0,29.89,SSE,153,5.0,6.0,54,0.00,,,0.00,weatherlink.com 1.10,2013-10-01 18:03:00,
2013-10-01 14:18:00,74.2,56.0,29.88,SSE,150,2.0,5.0,54,0.00,,,0.00,weatherlink.com 1.10,2013-10-01 18:18:00,
2013-10-01 14:33:00,73.2,56.0,29.88,SE,143,0.0,3.0,55,0.00,,,0.00,weatherlink.com 1.10,2013-10-01 18:33:00,
2013-10-01 14:48:00,72.8,58.0,29.88,ENE,77,0.0,2.0,61,0.00,,,0.00,weatherlink.com 1.10,2013-10-01 18:48:00,
2013-10-01 15:03:00,72.4,58.0,29.88,ENE,73,0.0,1.0,61,0.00,,,0.00,weatherlink.com 1.10,2013-10-01 19:03:00,
2013-10-01 15:18:00,74.0,58.0,29.87,SE,146,0.0,1.0,57,0.00,,,0.00,weatherlink.com 1.10,2013-10-01 19:18:00,
2013-10-01 15:34:00,75.5,57.0,29.86,NNE,15,0.0,4.0,53,0.00,,,0.00,weatherlink.com 1.10,2013-10-01 19:34:00,
2013-10-01 15:49:00,77.2,58.0,29.86,NW,313,2.0,3.0,52,0.00,,,0.00,weatherlink.com 1.10,2013-10-01 19:49:00,
2013-10-01 16:04:00,77.0,57.0,29.86,SSE,150,0.0,3.0,51,0.00,,,0.00,weatherlink.com 1.10,2013-10-01 20:04:00,
2013-10-01 16:19:00,76.2,58.0,29.86,WNW,290,1.0,3.0,54,0.00,,,0.00,weatherlink.com 1.10,2013-10-01 20:19:00,
2013-10-01 16:34:00,76.8,59.0,29.85,SSE,161,1.0,4.0,54,0.00,,,0.00,weatherlink.com 1.10,2013-10-01 20:34:00,
2013-10-01 16:49:00,74.7,58.0,29.85,SW,231,2.0,3.0,57,0.00,,,0.00,weatherlink.com 1.10,2013-10-01 20:49:00,
2013-10-01 17:04:00,73.0,60.0,29.85,WSW,243,0.0,2.0,65,0.00,,,0.00,weatherlink.com 1.10,2013-10-01 21:04:00,
2013-10-01 17:19:00,71.0,60.0,29.86,NNW,347,1.0,1.0,69,0.00,,,0.00,weatherlink.com 1.10,2013-10-01 21:19:00,
2013-10-01 17:34:00,70.1,60.0,29.85,North,352,0.0,1.0,71,0.00,,,0.00,weatherlink.com 1.10,2013-10-01 21:34:00,
2013-10-01 17:49:00,69.0,61.0,29.85,NNE,12,0.0,1.0,75,0.00,,,0.00,weatherlink.com 1.10,2013-10-01 21:49:00,
2013-10-01 18:04:00,67.5,61.0,29.85,NNE,18,1.0,2.0,79,0.00,,,0.00,weatherlink.com 1.10,2013-10-01 22:04:00,
2013-10-01 18:19:00,66.3,60.0,29.85,NNE,18,0.0,1.0,81,0.00,,,0.00,weatherlink.com 1.10,2013-10-01 22:19:00,
2013-10-01 18:34:00,65.5,60.0,29.85,NNE,18,0.0,0.0,82,0.00,,,0.00,weatherlink.com 1.10,2013-10-01 22:34:00,
2013-10-01 18:49:00,64.2,60.0,29.86,NNE,18,0.0,0.0,85,0.00,,,0.00,weatherlink.com 1.10,2013-10-01 22:49:00,
2013-10-01 19:04:00,62.9,59.0,29.86,NNE,18,0.0,0.0,87,0.00,,,0.00,weatherlink.com 1.10,2013-10-01 23:04:00,
2013-10-01 19:19:00,61.7,59.0,29.86,NNE,18,0.0,0.0,90,0.00,,,0.00,weatherlink.com 1.10,2013-10-01 23:19:00,
2013-10-01 19:35:00,60.8,58.0,29.87,NNE,18,0.0,0.0,91,0.00,,,0.00,weatherlink.com 1.10,2013-10-01 23:35:00,
2013-10-01 19:49:00,60.0,58.0,29.88,NNE,18,0.0,0.0,92,0.00,,,0.00,weatherlink.com 1.10,2013-10-01 23:49:00,
2013-10-01 20:04:00,59.3,57.0,29.87,NNE,18,0.0,0.0,93,0.00,,,0.00,weatherlink.com 1.10,2013-10-02 00:04:00,
2013-10-01 20:19:00,58.8,57.0,29.88,NNE,18,0.0,0.0,94,0.00,,,0.00,weatherlink.com 1.10,2013-10-02 00:19:00,
2013-10-01 20:34:00,58.5,57.0,29.88,NW,323,0.0,0.0,95,0.00,,,0.00,weatherlink.com 1.10,2013-10-02 00:34:00,
2013-10-01 20:49:00,58.7,57.0,29.88,NW,322,0.0,0.0,94,0.00,,,0.00,weatherlink.com 1.10,2013-10-02 00:49:00,
2013-10-01 21:04:00,57.8,56.0,29.88,NE,36,0.0,0.0,93,0.00,,,0.00,weatherlink.com 1.10,2013-10-02 01:04:00,
2013-10-01 21:19:00,57.0,55.0,29.88,SE,124,0.0,0.0,94,0.00,,,0.00,weatherlink.com 1.10,2013-10-02 01:19:00,
2013-10-01 21:34:00,56.7,55.0,29.88,NW,306,1.0,3.0,93,0.00,,,0.00,weatherlink.com 1.10,2013-10-02 01:34:00,
2013-10-01 21:49:00,56.9,54.0,29.88,NNW,345,1.0,3.0,91,0.00,,,0.00,weatherlink.com 1.10,2013-10-02 01:49:00,
2013-10-01 22:04:00,56.1,54.0,29.88,ENE,64,1.0,2.0,92,0.00,,,0.00,weatherlink.com 1.10,2013-10-02 02:04:00,
2013-10-01 22:19:00,55.7,53.0,29.88,ENE,62,0.0,2.0,90,0.00,,,0.00,weatherlink.com 1.10,2013-10-02 02:19:00,
2013-10-01 22:34:00,55.0,53.0,29.88,NNE,18,0.0,1.0,91,0.00,,,0.00,weatherlink.com 1.10,2013-10-02 02:34:00,
2013-10-01 22:49:00,55.2,52.0,29.88,East,89,1.0,2.0,89,0.00,,,0.00,weatherlink.com 1.10,2013-10-02 02:49:00,
2013-10-01 23:04:00,54.6,52.0,29.87,NE,46,0.0,1.0,89,0.00,,,0.00,weatherlink.com 1.10,2013-10-02 03:04:00,
2013-10-01 23:19:00,54.1,51.0,29.88,NNE,28,0.0,2.0,90,0.00,,,0.00,weatherlink.com 1.10,2013-10-02 03:19:00,
2013-10-01 23:34:00,55.5,52.0,29.87,NNE,30,0.0,3.0,88,0.00,,,0.00,weatherlink.com 1.10,2013-10-02 03:34:00,
2013-10-01 23:49:00,55.6,53.0,29.87,SW,233,0.0,1.0,89,0.00,,,0.00,weatherlink.com 1.10,2013-10-02 03:49:00,